sensor_id;sensor_type;location;lat;lon;timestamp;pressure;altitude;pressure_sealevel;temperature;humidity
26043;BME280;13818;52.156;5.382;2022-09-17T00:00:48;101013.00;;;12.46;100.00
26043;BME280;13818;52.156;5.382;2022-09-17T00:03:15;101018.50;;;12.43;100.00
26043;BME280;13818;52.156;5.382;2022-09-17T00:05:43;101011.59;;;12.39;100.00
26043;BME280;13818;52.156;5.382;2022-09-17T00:08:10;101020.00;;;12.31;100.00
26043;BME280;13818;52.156;5.382;2022-09-17T00:10:39;101026.34;;;12.28;100.00
26043;BME280;13818;52.156;5.382;2022-09-17T00:13:06;101030.09;;;12.24;100.00
26043;BME280;13818;52.156;5.382;2022-09-17T00:15:37;101022.03;;;12.26;100.00
26043;BME280;13818;52.156;5.382;2022-09-17T00:18:04;101017.47;;;12.28;100.00
26043;BME280;13818;52.156;5.382;2022-09-17T00:20:30;101024.22;;;12.35;100.00
26043;BME280;13818;52.156;5.382;2022-09-17T00:22:58;101013.53;;;12.35;100.00
26043;BME280;13818;52.156;5.382;2022-09-17T00:25:24;101014.34;;;12.37;100.00
26043;BME280;13818;52.156;5.382;2022-09-17T00:27:50;101023.13;;;12.39;100.00
26043;BME280;13818;52.156;5.382;2022-09-17T00:30:17;101028.63;;;12.36;100.00
26043;BME280;13818;52.156;5.382;2022-09-17T00:32:43;101028.47;;;12.39;100.00
26043;BME280;13818;52.156;5.382;2022-09-17T00:35:09;101027.69;;;12.37;100.00
26043;BME280;13818;52.156;5.382;2022-09-17T00:37:35;101033.03;;;12.37;100.00
26043;BME280;13818;52.156;5.382;2022-09-17T00:40:03;101037.47;;;12.38;100.00
26043;BME280;13818;52.156;5.382;2022-09-17T00:42:30;101039.97;;;12.41;100.00
26043;BME280;13818;52.156;5.382;2022-09-17T00:44:56;101044.50;;;12.39;100.00
26043;BME280;13818;52.156;5.382;2022-09-17T00:47:24;101038.13;;;12.42;100.00
26043;BME280;13818;52.156;5.382;2022-09-17T00:49:53;101043.88;;;12.34;100.00
26043;BME280;13818;52.156;5.382;2022-09-17T00:52:21;101050.34;;;12.30;100.00
26043;BME280;13818;52.156;5.382;2022-09-17T00:54:51;101045.16;;;12.27;100.00
26043;BME280;13818;52.156;5.382;2022-09-17T00:57:20;101047.81;;;12.27;100.00
26043;BME280;13818;52.156;5.382;2022-09-17T00:59:47;101047.66;;;12.30;100.00
26043;BME280;13818;52.156;5.382;2022-09-17T01:02:13;101048.81;;;12.24;100.00
26043;BME280;13818;52.156;5.382;2022-09-17T01:04:40;101047.97;;;12.24;100.00
26043;BME280;13818;52.156;5.382;2022-09-17T01:07:07;101045.16;;;12.27;100.00
26043;BME280;13818;52.156;5.382;2022-09-17T01:09:38;101042.41;;;12.28;100.00
26043;BME280;13818;52.156;5.382;2022-09-17T01:12:17;101039.47;;;12.33;100.00
26043;BME280;13818;52.156;5.382;2022-09-17T01:14:54;101040.44;;;12.32;100.00
26043;BME280;13818;52.156;5.382;2022-09-17T01:17:24;101046.84;;;12.28;100.00
26043;BME280;13818;52.156;5.382;2022-09-17T01:20:11;101044.56;;;12.20;100.00
26043;BME280;13818;52.156;5.382;2022-09-17T01:22:49;101042.16;;;12.15;100.00
26043;BME280;13818;52.156;5.382;2022-09-17T01:25:21;101055.19;;;12.21;100.00
26043;BME280;13818;52.156;5.382;2022-09-17T01:30:51;101046.09;;;12.26;100.00
26043;BME280;13818;52.156;5.382;2022-09-17T01:33:22;101059.59;;;12.23;100.00
26043;BME280;13818;52.156;5.382;2022-09-17T01:35:52;101060.38;;;12.25;100.00
26043;BME280;13818;52.156;5.382;2022-09-17T01:38:24;101063.78;;;12.28;100.00
26043;BME280;13818;52.156;5.382;2022-09-17T01:40:52;101058.44;;;12.28;100.00
26043;BME280;13818;52.156;5.382;2022-09-17T01:43:22;101066.19;;;12.33;100.00
26043;BME280;13818;52.156;5.382;2022-09-17T01:45:51;101065.19;;;12.35;100.00
26043;BME280;13818;52.156;5.382;2022-09-17T01:48:20;101064.63;;;12.29;100.00
26043;BME280;13818;52.156;5.382;2022-09-17T01:50:49;101066.19;;;12.33;100.00
26043;BME280;13818;52.156;5.382;2022-09-17T01:53:17;101063.31;;;12.37;100.00
26043;BME280;13818;52.156;5.382;2022-09-17T01:55:44;101070.09;;;12.45;100.00
26043;BME280;13818;52.156;5.382;2022-09-17T01:58:13;101062.81;;;12.47;100.00
26043;BME280;13818;52.156;5.382;2022-09-17T02:00:43;101069.91;;;12.48;100.00
26043;BME280;13818;52.156;5.382;2022-09-17T02:03:15;101061.97;;;12.46;100.00
26043;BME280;13818;52.156;5.382;2022-09-17T02:05:44;101071.88;;;12.44;100.00
26043;BME280;13818;52.156;5.382;2022-09-17T02:08:14;101076.16;;;12.48;100.00
26043;BME280;13818;52.156;5.382;2022-09-17T02:10:44;101075.44;;;12.45;100.00
26043;BME280;13818;52.156;5.382;2022-09-17T02:13:12;101079.22;;;12.41;100.00
26043;BME280;13818;52.156;5.382;2022-09-17T02:15:41;101072.44;;;12.33;100.00
26043;BME280;13818;52.156;5.382;2022-09-17T02:18:09;101076.59;;;12.39;100.00
26043;BME280;13818;52.156;5.382;2022-09-17T02:20:41;101071.97;;;12.43;100.00
26043;BME280;13818;52.156;5.382;2022-09-17T02:23:11;101079.97;;;12.43;100.00
26043;BME280;13818;52.156;5.382;2022-09-17T02:25:39;101075.66;;;12.40;100.00
26043;BME280;13818;52.156;5.382;2022-09-17T02:28:10;101074.72;;;12.41;100.00
26043;BME280;13818;52.156;5.382;2022-09-17T02:30:39;101079.25;;;12.39;100.00
26043;BME280;13818;52.156;5.382;2022-09-17T02:33:05;101078.31;;;12.40;100.00
26043;BME280;13818;52.156;5.382;2022-09-17T02:35:34;101082.22;;;12.33;100.00
26043;BME280;13818;52.156;5.382;2022-09-17T02:38:04;101084.13;;;12.31;100.00
26043;BME280;13818;52.156;5.382;2022-09-17T02:40:34;101073.44;;;12.31;100.00
26043;BME280;13818;52.156;5.382;2022-09-17T02:43:04;101076.13;;;12.31;100.00
26043;BME280;13818;52.156;5.382;2022-09-17T02:45:37;101086.19;;;12.26;100.00
26043;BME280;13818;52.156;5.382;2022-09-17T02:48:08;101081.78;;;12.25;100.00
26043;BME280;13818;52.156;5.382;2022-09-17T02:50:46;101081.69;;;12.26;100.00
26043;BME280;13818;52.156;5.382;2022-09-17T02:53:22;101087.91;;;12.27;100.00
26043;BME280;13818;52.156;5.382;2022-09-17T02:55:56;101090.00;;;12.20;100.00
26043;BME280;13818;52.156;5.382;2022-09-17T02:58:25;101092.59;;;12.21;100.00
26043;BME280;13818;52.156;5.382;2022-09-17T03:00:53;101088.25;;;12.19;100.00
26043;BME280;13818;52.156;5.382;2022-09-17T03:03:22;101091.22;;;12.13;100.00
26043;BME280;13818;52.156;5.382;2022-09-17T03:05:51;101099.06;;;11.98;100.00
26043;BME280;13818;52.156;5.382;2022-09-17T03:08:26;101103.00;;;11.89;100.00
26043;BME280;13818;52.156;5.382;2022-09-17T03:10:53;101104.81;;;11.89;100.00
26043;BME280;13818;52.156;5.382;2022-09-17T03:13:19;101090.03;;;11.82;100.00
26043;BME280;13818;52.156;5.382;2022-09-17T03:15:45;101088.19;;;11.82;100.00
26043;BME280;13818;52.156;5.382;2022-09-17T03:18:12;101083.59;;;11.86;100.00
26043;BME280;13818;52.156;5.382;2022-09-17T03:20:38;101086.34;;;11.84;100.00
26043;BME280;13818;52.156;5.382;2022-09-17T03:23:04;101094.44;;;11.83;100.00
26043;BME280;13818;52.156;5.382;2022-09-17T03:25:32;101087.47;;;11.79;100.00
26043;BME280;13818;52.156;5.382;2022-09-17T03:27:58;101085.59;;;11.81;100.00
26043;BME280;13818;52.156;5.382;2022-09-17T03:30:24;101085.53;;;11.82;100.00
26043;BME280;13818;52.156;5.382;2022-09-17T03:32:51;101093.69;;;11.79;100.00
26043;BME280;13818;52.156;5.382;2022-09-17T03:35:17;101084.47;;;11.86;100.00
26043;BME280;13818;52.156;5.382;2022-09-17T03:37:43;101086.03;;;11.91;100.00
26043;BME280;13818;52.156;5.382;2022-09-17T03:40:11;101081.50;;;11.93;100.00
26043;BME280;13818;52.156;5.382;2022-09-17T03:42:39;101085.69;;;11.79;100.00
26043;BME280;13818;52.156;5.382;2022-09-17T03:45:06;101076.78;;;11.79;100.00
26043;BME280;13818;52.156;5.382;2022-09-17T03:47:32;101085.69;;;11.79;100.00
26043;BME280;13818;52.156;5.382;2022-09-17T03:49:58;101083.03;;;11.79;100.00
26043;BME280;13818;52.156;5.382;2022-09-17T03:52:25;101089.75;;;11.69;100.00
26043;BME280;13818;52.156;5.382;2022-09-17T03:54:51;101089.78;;;11.67;100.00
26043;BME280;13818;52.156;5.382;2022-09-17T03:57:17;101099.78;;;11.64;100.00
26043;BME280;13818;52.156;5.382;2022-09-17T03:59:45;101096.22;;;11.63;100.00
26043;BME280;13818;52.156;5.382;2022-09-17T04:02:11;101097.88;;;11.66;100.00
26043;BME280;13818;52.156;5.382;2022-09-17T04:04:37;101102.72;;;11.77;100.00
26043;BME280;13818;52.156;5.382;2022-09-17T04:07:04;101101.16;;;11.72;100.00
26043;BME280;13818;52.156;5.382;2022-09-17T04:09:30;101116.66;;;11.64;100.00
26043;BME280;13818;52.156;5.382;2022-09-17T04:11:56;101103.38;;;11.63;100.00
26043;BME280;13818;52.156;5.382;2022-09-17T04:14:22;101104.78;;;11.51;100.00
26043;BME280;13818;52.156;5.382;2022-09-17T04:16:50;101100.91;;;11.58;100.00
26043;BME280;13818;52.156;5.382;2022-09-17T04:19:16;101099.31;;;11.54;100.00
26043;BME280;13818;52.156;5.382;2022-09-17T04:21:43;101107.47;;;11.51;100.00
26043;BME280;13818;52.156;5.382;2022-09-17T04:24:09;101107.25;;;11.55;100.00
26043;BME280;13818;52.156;5.382;2022-09-17T04:26:35;101101.91;;;11.55;100.00
26043;BME280;13818;52.156;5.382;2022-09-17T04:29:02;101106.31;;;11.56;100.00
26043;BME280;13818;52.156;5.382;2022-09-17T04:31:28;101101.84;;;11.57;100.00
26043;BME280;13818;52.156;5.382;2022-09-17T04:33:56;101103.38;;;11.63;100.00
26043;BME280;13818;52.156;5.382;2022-09-17T04:36:22;101102.44;;;11.64;100.00
26043;BME280;13818;52.156;5.382;2022-09-17T04:38:48;101100.47;;;11.67;100.00
26043;BME280;13818;52.156;5.382;2022-09-17T04:41:15;101107.63;;;11.67;100.00
26043;BME280;13818;52.156;5.382;2022-09-17T04:43:41;101099.78;;;11.64;100.00
26043;BME280;13818;52.156;5.382;2022-09-17T04:46:07;101105.50;;;11.54;100.00
26043;BME280;13818;52.156;5.382;2022-09-17T04:48:34;101099.25;;;11.55;100.00
26043;BME280;13818;52.156;5.382;2022-09-17T04:51:01;101107.41;;;11.52;100.00
26043;BME280;13818;52.156;5.382;2022-09-17T04:53:27;101105.75;;;11.50;100.00
26043;BME280;13818;52.156;5.382;2022-09-17T04:55:54;101106.44;;;11.53;100.00
26043;BME280;13818;52.156;5.382;2022-09-17T04:58:20;101111.75;;;11.55;100.00
26043;BME280;13818;52.156;5.382;2022-09-17T05:00:47;101108.06;;;11.58;100.00
26043;BME280;13818;52.156;5.382;2022-09-17T05:03:13;101100.91;;;11.58;100.00
26043;BME280;13818;52.156;5.382;2022-09-17T05:05:39;101107.25;;;11.55;100.00
26043;BME280;13818;52.156;5.382;2022-09-17T05:08:07;101108.84;;;11.60;100.00
26043;BME280;13818;52.156;5.382;2022-09-17T05:10:33;101109.13;;;11.53;100.00
26043;BME280;13818;52.156;5.382;2022-09-17T05:12:59;101111.78;;;11.53;100.00
26043;BME280;13818;52.156;5.382;2022-09-17T05:15:25;101115.13;;;11.59;100.00
26043;BME280;13818;52.156;5.382;2022-09-17T05:17:52;101118.78;;;11.56;100.00
26043;BME280;13818;52.156;5.382;2022-09-17T05:20:19;101122.41;;;11.55;100.00
26043;BME280;13818;52.156;5.382;2022-09-17T05:22:46;101128.03;;;11.49;100.00
26043;BME280;13818;52.156;5.382;2022-09-17T05:25:15;101123.16;;;11.38;100.00
26043;BME280;13818;52.156;5.382;2022-09-17T05:27:42;101127.72;;;11.36;100.00
26043;BME280;13818;52.156;5.382;2022-09-17T05:30:09;101127.84;;;11.33;100.00
26043;BME280;13818;52.156;5.382;2022-09-17T05:32:35;101127.19;;;11.28;100.00
26043;BME280;13818;52.156;5.382;2022-09-17T05:35:03;101136.00;;;11.30;100.00
26043;BME280;13818;52.156;5.382;2022-09-17T05:37:29;101133.06;;;11.36;100.00
26043;BME280;13818;52.156;5.382;2022-09-17T05:39:56;101131.09;;;11.39;100.00
26043;BME280;13818;52.156;5.382;2022-09-17T05:42:23;101148.94;;;11.39;100.00
26043;BME280;13818;52.156;5.382;2022-09-17T05:44:50;101143.44;;;11.42;100.00
26043;BME280;13818;52.156;5.382;2022-09-17T05:47:16;101147.56;;;11.49;100.00
26043;BME280;13818;52.156;5.382;2022-09-17T05:49:42;101162.50;;;11.53;100.00
26043;BME280;13818;52.156;5.382;2022-09-17T05:52:08;101156.97;;;11.58;100.00
26043;BME280;13818;52.156;5.382;2022-09-17T05:54:35;101160.72;;;11.54;100.00
26043;BME280;13818;52.156;5.382;2022-09-17T05:57:01;101158.56;;;11.62;100.00
26043;BME280;13818;52.156;5.382;2022-09-17T05:59:29;101153.59;;;11.73;100.00
26043;BME280;13818;52.156;5.382;2022-09-17T06:01:55;101144.06;;;11.68;100.00
26043;BME280;13818;52.156;5.382;2022-09-17T06:04:22;101148.41;;;11.89;100.00
26043;BME280;13818;52.156;5.382;2022-09-17T06:06:48;101156.94;;;12.36;100.00
26043;BME280;13818;52.156;5.382;2022-09-17T06:09:14;101152.63;;;12.88;100.00
26043;BME280;13818;52.156;5.382;2022-09-17T06:11:41;101154.56;;;13.37;100.00
26043;BME280;13818;52.156;5.382;2022-09-17T06:14:07;101155.03;;;13.78;100.00
26043;BME280;13818;52.156;5.382;2022-09-17T06:16:35;101152.63;;;14.22;100.00
26043;BME280;13818;52.156;5.382;2022-09-17T06:19:01;101151.94;;;14.34;100.00
26043;BME280;13818;52.156;5.382;2022-09-17T06:21:28;101171.31;;;14.55;100.00
26043;BME280;13818;52.156;5.382;2022-09-17T06:23:55;101160.63;;;14.86;100.00
26043;BME280;13818;52.156;5.382;2022-09-17T06:26:21;101162.81;;;15.24;100.00
26043;BME280;13818;52.156;5.382;2022-09-17T06:28:47;101172.19;;;15.47;100.00
26043;BME280;13818;52.156;5.382;2022-09-17T06:31:14;101169.13;;;15.82;100.00
26043;BME280;13818;52.156;5.382;2022-09-17T06:33:41;101167.56;;;16.07;100.00
26043;BME280;13818;52.156;5.382;2022-09-17T06:36:08;101162.34;;;16.33;100.00
26043;BME280;13818;52.156;5.382;2022-09-17T06:38:36;101158.78;;;16.87;96.15
26043;BME280;13818;52.156;5.382;2022-09-17T06:41:03;101165.78;;;16.89;94.02
26043;BME280;13818;52.156;5.382;2022-09-17T06:43:29;101159.72;;;16.86;93.60
26043;BME280;13818;52.156;5.382;2022-09-17T06:45:57;101178.22;;;16.78;93.24
26043;BME280;13818;52.156;5.382;2022-09-17T06:48:23;101171.06;;;16.91;92.90
26043;BME280;13818;52.156;5.382;2022-09-17T06:50:52;101180.81;;;17.06;92.07
26043;BME280;13818;52.156;5.382;2022-09-17T06:53:18;101171.78;;;17.20;89.32
26043;BME280;13818;52.156;5.382;2022-09-17T06:55:45;101186.31;;;17.31;89.00
26043;BME280;13818;52.156;5.382;2022-09-17T06:58:12;101185.88;;;16.98;90.65
26043;BME280;13818;52.156;5.382;2022-09-17T07:00:38;101188.38;;;17.27;87.62
26043;BME280;13818;52.156;5.382;2022-09-17T07:03:04;101190.88;;;17.30;87.22
26043;BME280;13818;52.156;5.382;2022-09-17T07:05:31;101191.28;;;17.24;89.13
26043;BME280;13818;52.156;5.382;2022-09-17T07:08:00;101188.28;;;17.42;87.00
26043;BME280;13818;52.156;5.382;2022-09-17T07:10:27;101183.50;;;17.06;90.63
26043;BME280;13818;52.156;5.382;2022-09-17T07:12:53;101185.97;;;16.69;91.92
26043;BME280;13818;52.156;5.382;2022-09-17T07:15:20;101177.88;;;16.69;93.93
26043;BME280;13818;52.156;5.382;2022-09-17T07:17:46;101180.31;;;16.59;90.05
26043;BME280;13818;52.156;5.382;2022-09-17T07:20:12;101183.44;;;16.66;92.56
26043;BME280;13818;52.156;5.382;2022-09-17T07:22:39;101171.22;;;17.02;91.64
26043;BME280;13818;52.156;5.382;2022-09-17T07:25:07;101174.88;;;17.27;90.01
26043;BME280;13818;52.156;5.382;2022-09-17T07:27:34;101173.81;;;17.30;88.61
26043;BME280;13818;52.156;5.382;2022-09-17T07:30:00;101173.69;;;17.18;89.70
26043;BME280;13818;52.156;5.382;2022-09-17T07:32:27;101174.28;;;17.23;88.51
26043;BME280;13818;52.156;5.382;2022-09-17T07:34:54;101175.13;;;16.84;90.28
26043;BME280;13818;52.156;5.382;2022-09-17T07:37:20;101167.59;;;16.89;89.89
26043;BME280;13818;52.156;5.382;2022-09-17T07:39:46;101174.56;;;16.79;89.89
26043;BME280;13818;52.156;5.382;2022-09-17T07:42:14;101185.81;;;16.58;89.79
26043;BME280;13818;52.156;5.382;2022-09-17T07:44:40;101188.78;;;16.53;89.79
26043;BME280;13818;52.156;5.382;2022-09-17T07:47:07;101180.22;;;16.61;90.45
26043;BME280;13818;52.156;5.382;2022-09-17T07:49:34;101186.09;;;16.53;91.86
26043;BME280;13818;52.156;5.382;2022-09-17T07:52:00;101185.81;;;16.58;92.58
26043;BME280;13818;52.156;5.382;2022-09-17T07:54:30;101191.19;;;16.58;93.23
26043;BME280;13818;52.156;5.382;2022-09-17T07:56:57;101190.19;;;16.59;92.68
26043;BME280;13818;52.156;5.382;2022-09-17T07:59:25;101188.63;;;16.42;92.28
26043;BME280;13818;52.156;5.382;2022-09-17T08:01:51;101183.41;;;16.12;92.91
26043;BME280;13818;52.156;5.382;2022-09-17T08:04:17;101194.47;;;15.92;93.18
26043;BME280;13818;52.156;5.382;2022-09-17T08:06:44;101194.09;;;15.84;93.48
26043;BME280;13818;52.156;5.382;2022-09-17T08:09:12;101186.13;;;15.83;93.57
26043;BME280;13818;52.156;5.382;2022-09-17T08:11:39;101197.84;;;15.96;92.81
26043;BME280;13818;52.156;5.382;2022-09-17T08:14:08;101204.94;;;16.12;93.15
26043;BME280;13818;52.156;5.382;2022-09-17T08:16:36;101193.22;;;15.98;90.87
26043;BME280;13818;52.156;5.382;2022-09-17T08:19:02;101197.44;;;16.02;89.88
26043;BME280;13818;52.156;5.382;2022-09-17T08:21:28;101220.28;;;16.24;89.27
26043;BME280;13818;52.156;5.382;2022-09-17T08:23:54;101211.56;;;15.91;90.82
26043;BME280;13818;52.156;5.382;2022-09-17T08:26:21;101207.09;;;15.61;96.01
26043;BME280;13818;52.156;5.382;2022-09-17T08:28:49;101200.31;;;15.11;100.00
26043;BME280;13818;52.156;5.382;2022-09-17T08:31:16;101199.84;;;14.72;100.00
26043;BME280;13818;52.156;5.382;2022-09-17T08:33:45;101199.34;;;14.49;100.00
26043;BME280;13818;52.156;5.382;2022-09-17T08:36:12;101193.91;;;14.51;100.00
26043;BME280;13818;52.156;5.382;2022-09-17T08:38:39;101205.38;;;14.53;100.00
26043;BME280;13818;52.156;5.382;2022-09-17T08:41:11;101198.59;;;14.94;100.00
26043;BME280;13818;52.156;5.382;2022-09-17T08:43:43;101203.84;;;15.11;100.00
26043;BME280;13818;52.156;5.382;2022-09-17T08:46:11;101205.53;;;15.28;100.00
26043;BME280;13818;52.156;5.382;2022-09-17T08:48:38;101201.84;;;15.15;100.00
26043;BME280;13818;52.156;5.382;2022-09-17T08:51:10;101204.84;;;15.25;100.00
26043;BME280;13818;52.156;5.382;2022-09-17T08:53:46;101193.38;;;15.37;100.00
26043;BME280;13818;52.156;5.382;2022-09-17T08:56:15;101199.53;;;15.54;100.00
26043;BME280;13818;52.156;5.382;2022-09-17T08:58:49;101207.31;;;15.73;97.69
26043;BME280;13818;52.156;5.382;2022-09-17T09:01:21;101202.03;;;15.71;95.18
26043;BME280;13818;52.156;5.382;2022-09-17T09:06:45;101196.59;;;15.87;92.23
26043;BME280;13818;52.156;5.382;2022-09-17T09:09:14;101202.91;;;16.01;91.40
26043;BME280;13818;52.156;5.382;2022-09-17T09:11:41;101201.53;;;16.22;92.57
26043;BME280;13818;52.156;5.382;2022-09-17T09:14:09;101211.66;;;16.19;90.05
26043;BME280;13818;52.156;5.382;2022-09-17T09:16:38;101203.84;;;16.29;88.41
26043;BME280;13818;52.156;5.382;2022-09-17T09:19:10;101208.31;;;16.42;87.95
26043;BME280;13818;52.156;5.382;2022-09-17T09:21:42;101207.88;;;16.63;87.87
26043;BME280;13818;52.156;5.382;2022-09-17T09:24:15;101204.41;;;16.61;86.70
26043;BME280;13818;52.156;5.382;2022-09-17T09:26:49;101211.09;;;16.55;85.99
26043;BME280;13818;52.156;5.382;2022-09-17T09:29:21;101212.03;;;16.54;88.61
26043;BME280;13818;52.156;5.382;2022-09-17T09:31:59;101207.81;;;16.50;90.10
26043;BME280;13818;52.156;5.382;2022-09-17T09:34:28;101203.00;;;16.55;90.53
26043;BME280;13818;52.156;5.382;2022-09-17T09:36:55;101205.34;;;16.47;90.63
26043;BME280;13818;52.156;5.382;2022-09-17T09:39:28;101205.25;;;15.92;91.74
26043;BME280;13818;52.156;5.382;2022-09-17T09:41:59;101208.94;;;15.75;96.60
26043;BME280;13818;52.156;5.382;2022-09-17T09:44:29;101206.63;;;15.69;98.22
26043;BME280;13818;52.156;5.382;2022-09-17T09:47:11;101204.53;;;15.60;97.54
26043;BME280;13818;52.156;5.382;2022-09-17T09:49:44;101204.31;;;15.63;100.00
26043;BME280;13818;52.156;5.382;2022-09-17T09:52:18;101218.06;;;15.28;100.00
26043;BME280;13818;52.156;5.382;2022-09-17T09:54:54;101222.31;;;15.32;100.00
26043;BME280;13818;52.156;5.382;2022-09-17T09:57:30;101230.84;;;15.24;100.00
26043;BME280;13818;52.156;5.382;2022-09-17T10:00:15;101252.28;;;14.94;100.00
26043;BME280;13818;52.156;5.382;2022-09-17T10:02:45;101250.25;;;14.67;100.00
26043;BME280;13818;52.156;5.382;2022-09-17T10:05:12;101246.03;;;14.13;100.00
26043;BME280;13818;52.156;5.382;2022-09-17T10:07:41;101240.13;;;14.07;100.00
26043;BME280;13818;52.156;5.382;2022-09-17T10:10:09;101239.59;;;14.00;100.00
26043;BME280;13818;52.156;5.382;2022-09-17T10:12:35;101236.84;;;14.02;100.00
26043;BME280;13818;52.156;5.382;2022-09-17T10:15:17;101233.25;;;14.19;100.00
26043;BME280;13818;52.156;5.382;2022-09-17T10:17:47;101237.56;;;14.37;100.00
26043;BME280;13818;52.156;5.382;2022-09-17T10:20:14;101239.84;;;14.45;100.00
26043;BME280;13818;52.156;5.382;2022-09-17T10:22:41;101232.66;;;14.77;100.00
26043;BME280;13818;52.156;5.382;2022-09-17T10:25:27;101230.06;;;14.92;100.00
26043;BME280;13818;52.156;5.382;2022-09-17T10:27:55;101229.13;;;15.07;100.00
26043;BME280;13818;52.156;5.382;2022-09-17T10:30:22;101234.84;;;15.17;100.00
26043;BME280;13818;52.156;5.382;2022-09-17T10:33:09;101215.84;;;15.20;100.00
26043;BME280;13818;52.156;5.382;2022-09-17T10:35:35;101217.22;;;15.27;100.00
26043;BME280;13818;52.156;5.382;2022-09-17T10:38:01;101217.31;;;15.26;100.00
26043;BME280;13818;52.156;5.382;2022-09-17T10:40:30;101222.81;;;15.39;100.00
26043;BME280;13818;52.156;5.382;2022-09-17T10:43:15;101211.00;;;15.27;100.00
26043;BME280;13818;52.156;5.382;2022-09-17T10:45:43;101207.06;;;15.33;100.00
26043;BME280;13818;52.156;5.382;2022-09-17T10:48:12;101207.53;;;15.25;100.00
26043;BME280;13818;52.156;5.382;2022-09-17T10:50:40;101202.88;;;15.12;100.00
26043;BME280;13818;52.156;5.382;2022-09-17T10:53:14;101198.16;;;15.32;100.00
26043;BME280;13818;52.156;5.382;2022-09-17T10:55:42;101198.16;;;15.32;100.00
26043;BME280;13818;52.156;5.382;2022-09-17T10:58:16;101186.16;;;15.38;100.00
26043;BME280;13818;52.156;5.382;2022-09-17T11:00:51;101193.81;;;15.29;100.00
26043;BME280;13818;52.156;5.382;2022-09-17T11:06:14;101183.09;;;15.44;100.00
26043;BME280;13818;52.156;5.382;2022-09-17T11:08:47;101180.44;;;15.58;100.00
26043;BME280;13818;52.156;5.382;2022-09-17T11:11:27;101177.06;;;15.69;100.00
26043;BME280;13818;52.156;5.382;2022-09-17T11:14:01;101172.84;;;15.65;97.16
26043;BME280;13818;52.156;5.382;2022-09-17T11:16:34;101169.72;;;15.87;100.00
26043;BME280;13818;52.156;5.382;2022-09-17T11:19:08;101174.84;;;16.05;94.40
26043;BME280;13818;52.156;5.382;2022-09-17T11:21:39;101169.47;;;16.05;92.38
26043;BME280;13818;52.156;5.382;2022-09-17T11:26:53;101170.38;;;16.05;86.81
26043;BME280;13818;52.156;5.382;2022-09-17T11:29:28;101176.34;;;15.96;84.83
26043;BME280;13818;52.156;5.382;2022-09-17T11:32:00;101169.06;;;15.84;85.09
26043;BME280;13818;52.156;5.382;2022-09-17T11:34:30;101169.09;;;15.68;81.27
26043;BME280;13818;52.156;5.382;2022-09-17T11:37:01;101165.75;;;15.64;81.90
26043;BME280;13818;52.156;5.382;2022-09-17T11:39:31;101166.63;;;15.65;78.29
26043;BME280;13818;52.156;5.382;2022-09-17T11:42:01;101168.16;;;15.83;77.47
26043;BME280;13818;52.156;5.382;2022-09-17T11:44:30;101164.63;;;15.83;72.22
26043;BME280;13818;52.156;5.382;2022-09-17T11:46:58;101162.31;;;15.91;67.36
26043;BME280;13818;52.156;5.382;2022-09-17T11:49:29;101180.25;;;15.90;66.84
26043;BME280;13818;52.156;5.382;2022-09-17T11:51:59;101172.28;;;16.18;68.21
26043;BME280;13818;52.156;5.382;2022-09-17T11:54:27;101166.50;;;16.09;70.46
26043;BME280;13818;52.156;5.382;2022-09-17T11:56:57;101175.91;;;16.02;71.42
26043;BME280;13818;52.156;5.382;2022-09-17T11:59:30;101186.88;;;15.99;75.42
26043;BME280;13818;52.156;5.382;2022-09-17T12:02:01;101212.41;;;15.92;84.49
26043;BME280;13818;52.156;5.382;2022-09-17T12:04:33;101186.25;;;15.36;100.00
26043;BME280;13818;52.156;5.382;2022-09-17T12:07:07;101187.47;;;15.16;100.00
26043;BME280;13818;52.156;5.382;2022-09-17T12:09:37;101189.59;;;14.95;100.00
26043;BME280;13818;52.156;5.382;2022-09-17T12:12:09;101190.47;;;14.95;100.00
26043;BME280;13818;52.156;5.382;2022-09-17T12:14:43;101202.75;;;15.00;100.00
26043;BME280;13818;52.156;5.382;2022-09-17T12:17:12;101222.59;;;14.81;100.00
26043;BME280;13818;52.156;5.382;2022-09-17T12:19:42;101207.28;;;14.99;100.00
26043;BME280;13818;52.156;5.382;2022-09-17T12:22:10;101180.97;;;14.90;100.00
26043;BME280;13818;52.156;5.382;2022-09-17T12:24:39;101190.47;;;14.95;100.00
26043;BME280;13818;52.156;5.382;2022-09-17T12:27:11;101197.97;;;15.05;100.00
26043;BME280;13818;52.156;5.382;2022-09-17T12:29:51;101197.13;;;15.04;100.00
26043;BME280;13818;52.156;5.382;2022-09-17T12:32:29;101202.84;;;14.68;100.00
26043;BME280;13818;52.156;5.382;2022-09-17T12:35:00;101192.41;;;14.61;100.00
26043;BME280;13818;52.156;5.382;2022-09-17T12:37:30;101187.50;;;14.38;100.00
26043;BME280;13818;52.156;5.382;2022-09-17T12:40:03;101187.31;;;14.41;100.00
26043;BME280;13818;52.156;5.382;2022-09-17T12:42:44;101186.22;;;14.45;100.00
26043;BME280;13818;52.156;5.382;2022-09-17T12:50:42;101180.69;;;14.94;100.00
26043;BME280;13818;52.156;5.382;2022-09-17T12:53:17;101185.41;;;15.05;100.00
26043;BME280;13818;52.156;5.382;2022-09-17T12:55:49;101184.38;;;15.08;100.00
26043;BME280;13818;52.156;5.382;2022-09-17T12:58:24;101205.41;;;15.30;100.00
26043;BME280;13818;52.156;5.382;2022-09-17T13:00:54;101223.50;;;15.42;100.00
26043;BME280;13818;52.156;5.382;2022-09-17T13:03:26;101208.94;;;15.16;100.00
26043;BME280;13818;52.156;5.382;2022-09-17T13:08:53;101200.22;;;14.66;100.00
26043;BME280;13818;52.156;5.382;2022-09-17T13:11:40;101196.38;;;14.86;100.00